createdAt,value
2018-05-08T00:02:14.818Z,100055.84
2018-05-08T00:04:40.963Z,100059.75
2018-05-08T00:07:07.114Z,100061.27
2018-05-08T00:09:33.303Z,100061.95
2018-05-08T00:11:59.445Z,100056.53
2018-05-08T00:14:25.661Z,100056.52
2018-05-08T00:16:52.108Z,100060.75
2018-05-08T00:21:49.788Z,100057.22
2018-05-08T00:24:16.827Z,100055.22
2018-05-08T00:26:43.468Z,100054.91
2018-05-08T00:29:09.719Z,100053.70
2018-05-08T00:31:35.935Z,100052.36
2018-05-08T00:34:02.198Z,100047.78
2018-05-08T00:36:28.478Z,100047.31
2018-05-08T00:38:54.830Z,100041.13
2018-05-08T00:41:20.936Z,100042.81
2018-05-08T00:43:47.296Z,100043.64
2018-05-08T00:46:15.458Z,100039.42
2018-05-08T00:48:41.789Z,100034.39
2018-05-08T00:51:08.397Z,100036.91
2018-05-08T00:53:34.760Z,100031.39
2018-05-08T00:56:01.017Z,100028.68
2018-05-08T00:58:27.428Z,100025.14
2018-05-08T01:00:53.990Z,100021.23
2018-05-08T01:03:20.886Z,100027.56
2018-05-08T01:05:47.092Z,100030.97
2018-05-08T01:08:13.339Z,100028.85
2018-05-08T01:10:39.489Z,100022.55
2018-05-08T01:13:05.923Z,100024.29
2018-05-08T01:15:32.154Z,100020.07
2018-05-08T01:17:58.299Z,100013.29
2018-05-08T01:20:24.692Z,100013.77
2018-05-08T01:22:51.102Z,100009.44
2018-05-08T01:25:17.990Z,100010.80
2018-05-08T01:27:44.187Z,100014.50
2018-05-08T01:30:10.659Z,100010.31
2018-05-08T01:32:36.876Z,100009.97
2018-05-08T01:35:03.110Z,100005.38
2018-05-08T01:37:29.382Z,100006.69
2018-05-08T01:39:55.504Z,100007.11
2018-05-08T01:42:21.712Z,100005.40
2018-05-08T01:44:48.047Z,100000.66
2018-05-08T01:47:14.261Z,99998.91
2018-05-08T01:49:40.385Z,99998.70
2018-05-08T01:52:06.578Z,100001.61
2018-05-08T01:54:32.636Z,99999.80
2018-05-08T01:56:58.804Z,100001.61
2018-05-08T02:01:57.774Z,99996.13
2018-05-08T02:04:24.086Z,99997.83
2018-05-08T02:06:50.241Z,99997.42
2018-05-08T02:09:16.457Z,99992.78
2018-05-08T02:11:42.835Z,99991.16
2018-05-08T02:14:17.856Z,99989.89
2018-05-08T02:16:44.424Z,99994.92
2018-05-08T02:19:10.742Z,99982.73
2018-05-08T02:21:37.051Z,99986.52
2018-05-08T02:24:03.407Z,99986.55
2018-05-08T02:26:29.594Z,99989.47
2018-05-08T02:28:56.029Z,99984.41
2018-05-08T02:31:22.380Z,99979.73
2018-05-08T02:33:49.217Z,99976.34
2018-05-08T02:36:16.888Z,99975.78
2018-05-08T02:38:43.820Z,99978.88
2018-05-08T02:41:12.186Z,99974.72
2018-05-08T02:43:38.516Z,99972.97
2018-05-08T02:46:05.000Z,99973.84
2018-05-08T02:48:31.180Z,99966.25
2018-05-08T02:50:57.490Z,99969.19
2018-05-08T02:53:23.842Z,99959.83
2018-05-08T02:55:50.223Z,99962.45
2018-05-08T02:58:18.691Z,99964.16
2018-05-08T03:00:44.920Z,99966.69
2018-05-08T03:05:58.609Z,99956.14
2018-05-08T03:08:24.850Z,99964.16
2018-05-08T03:10:52.089Z,99958.24
2018-05-08T03:13:20.308Z,99958.62
2018-05-08T03:15:46.629Z,99960.38
2018-05-08T03:18:12.825Z,99954.89
2018-05-08T03:20:39.311Z,99957.42
2018-05-08T03:23:05.631Z,99949.42
2018-05-08T03:25:35.167Z,99957.84
2018-05-08T03:28:01.567Z,99959.11
2018-05-08T03:30:27.953Z,99957.88
2018-05-08T03:32:54.128Z,99962.88
2018-05-08T03:35:20.527Z,99957.43
2018-05-08T03:37:47.095Z,99962.49
2018-05-08T03:40:13.323Z,99962.48
2018-05-08T03:42:39.577Z,99954.87
2018-05-08T03:45:05.714Z,99960.36
2018-05-08T03:47:31.868Z,99957.81
2018-05-08T03:49:57.988Z,99960.36
2018-05-08T03:52:24.278Z,99960.81
2018-05-08T03:54:50.496Z,99962.05
2018-05-08T03:57:16.726Z,99962.85
2018-05-08T03:59:42.910Z,99949.41
2018-05-08T04:02:09.127Z,99950.66
2018-05-08T04:04:37.307Z,99953.20
2018-05-08T04:07:03.512Z,99949.80
2018-05-08T04:09:29.880Z,99957.85
2018-05-08T04:11:59.988Z,99954.47
2018-05-08T04:14:26.605Z,99953.20
2018-05-08T04:16:53.093Z,99948.52
2018-05-08T04:19:20.082Z,99948.02
2018-05-08T04:21:47.361Z,99947.95
2018-05-08T04:24:13.586Z,99947.91
2018-05-08T04:26:40.906Z,99938.98
2018-05-08T04:29:08.510Z,99941.05
2018-05-08T04:31:38.656Z,99942.34
2018-05-08T04:34:06.205Z,99943.02
2018-05-08T04:36:32.709Z,99941.83
2018-05-08T04:38:58.822Z,99940.87
2018-05-08T04:41:24.975Z,99938.33
2018-05-08T04:43:51.356Z,99934.86
2018-05-08T04:46:18.048Z,99941.42
2018-05-08T04:48:46.154Z,99935.38
2018-05-08T04:51:12.763Z,99937.76
2018-05-08T04:53:38.990Z,99938.43
2018-05-08T04:56:05.987Z,99935.22
2018-05-08T04:58:32.307Z,99937.99
2018-05-08T05:00:59.541Z,99941.39
2018-05-08T05:03:28.197Z,99943.74
2018-05-08T05:05:54.521Z,99936.80
2018-05-08T05:08:21.327Z,99936.70
2018-05-08T05:10:47.745Z,99937.34
2018-05-08T05:13:14.316Z,99936.09
2018-05-08T05:15:41.407Z,99939.45
2018-05-08T05:18:07.879Z,99937.95
2018-05-08T05:20:35.370Z,99935.66
2018-05-08T05:23:01.777Z,99936.34
2018-05-08T05:25:28.960Z,99945.90
2018-05-08T05:30:32.953Z,99939.67
2018-05-08T05:32:59.399Z,99934.25
2018-05-08T05:35:29.741Z,99938.66
2018-05-08T05:37:56.013Z,99938.94
2018-05-08T05:40:22.339Z,99937.26
2018-05-08T05:42:48.529Z,99935.19
2018-05-08T05:45:14.586Z,99938.28
2018-05-08T05:47:40.650Z,99928.35
2018-05-08T05:50:07.000Z,99933.66
2018-05-08T05:52:34.115Z,99934.55
2018-05-08T05:55:00.671Z,99930.65
2018-05-08T05:57:27.144Z,99925.03
2018-05-08T05:59:53.338Z,99925.88
2018-05-08T06:02:19.492Z,99920.03
2018-05-08T06:04:45.487Z,99925.73
2018-05-08T06:07:11.614Z,99930.70
2018-05-08T06:09:37.775Z,99925.74
2018-05-08T06:12:03.823Z,99926.45
2018-05-08T06:14:29.847Z,99931.22
2018-05-08T06:16:55.978Z,99924.08
2018-05-08T06:19:22.033Z,99929.94
2018-05-08T06:21:48.266Z,99924.29
2018-05-08T06:24:14.818Z,99921.55
2018-05-08T06:26:42.061Z,99921.89
2018-05-08T06:29:09.514Z,99927.06
2018-05-08T06:34:10.242Z,99924.70
2018-05-08T06:36:40.901Z,99918.17
2018-05-08T06:39:08.678Z,99913.36
2018-05-08T06:41:35.196Z,99913.15
2018-05-08T06:44:02.004Z,99913.76
2018-05-08T06:46:28.471Z,99911.43
2018-05-08T06:48:55.118Z,99907.63
2018-05-08T06:51:21.610Z,99911.73
2018-05-08T06:53:47.961Z,99910.33
2018-05-08T06:59:04.201Z,99907.47
2018-05-08T07:01:30.408Z,99905.58
2018-05-08T07:06:40.297Z,99899.56
2018-05-08T07:09:06.919Z,99894.66
2018-05-08T07:11:37.192Z,99899.28
2018-05-08T07:14:04.973Z,99892.07
2018-05-08T07:16:33.199Z,99885.33
2018-05-08T07:18:59.772Z,99895.81
2018-05-08T07:21:27.534Z,99900.20
2018-05-08T07:23:57.978Z,99894.97
2018-05-08T07:26:24.103Z,99892.00
2018-05-08T07:28:50.264Z,99895.91
2018-05-08T07:31:16.516Z,99890.41
2018-05-08T07:33:43.598Z,99893.27
2018-05-08T07:36:10.126Z,99891.75
2018-05-08T07:38:36.296Z,99884.81
2018-05-08T07:41:02.780Z,99890.70
2018-05-08T07:43:29.021Z,99888.56
2018-05-08T07:45:55.474Z,99888.63
2018-05-08T07:50:57.509Z,99887.48
2018-05-08T07:53:23.716Z,99895.94
2018-05-08T07:55:51.665Z,99889.52
2018-05-08T07:58:19.494Z,99895.51
2018-05-08T08:00:45.534Z,99902.02
2018-05-08T08:03:11.931Z,99897.63
2018-05-08T08:05:38.006Z,99897.83
2018-05-08T08:08:04.289Z,99899.57
2018-05-08T08:10:30.797Z,99891.23
2018-05-08T08:12:56.784Z,99894.91
2018-05-08T08:15:22.774Z,99892.77
2018-05-08T08:17:48.772Z,99891.19
2018-05-08T08:20:15.187Z,99884.34
2018-05-08T08:22:43.705Z,99883.32
2018-05-08T08:25:15.139Z,99883.12
2018-05-08T08:27:41.578Z,99872.23
2018-05-08T08:30:08.019Z,99873.88
2018-05-08T08:32:34.762Z,99869.89
2018-05-08T08:35:02.616Z,99871.55
2018-05-08T08:37:31.166Z,99872.16
2018-05-08T08:39:57.634Z,99862.48
2018-05-08T08:42:24.990Z,99864.34
2018-05-08T08:44:52.960Z,99860.22
2018-05-08T08:47:20.618Z,99857.95
2018-05-08T08:49:47.055Z,99860.95
2018-05-08T08:52:13.594Z,99855.31
2018-05-08T08:54:40.231Z,99855.81
2018-05-08T08:57:10.148Z,99848.23
2018-05-08T08:59:41.203Z,99844.33
2018-05-08T09:02:09.364Z,99841.27
2018-05-08T09:04:35.920Z,99838.35
2018-05-08T09:07:02.526Z,99841.70
2018-05-08T09:09:28.870Z,99841.64
2018-05-08T09:11:55.316Z,99835.59
2018-05-08T09:14:22.850Z,99837.45
2018-05-08T09:16:50.437Z,99833.88
2018-05-08T09:19:18.291Z,99837.28
2018-05-08T09:21:44.683Z,99822.63
2018-05-08T09:24:11.331Z,99825.75
2018-05-08T09:26:37.900Z,99821.36
2018-05-08T09:29:04.323Z,99814.40
2018-05-08T09:31:30.794Z,99806.39
2018-05-08T09:36:33.831Z,99812.52
2018-05-08T09:39:00.441Z,99797.68
2018-05-08T09:41:26.918Z,99797.08
2018-05-08T09:43:53.660Z,99784.70
2018-05-08T09:46:19.918Z,99783.55
2018-05-08T09:48:48.244Z,99783.25
2018-05-08T09:51:14.624Z,99783.09
2018-05-08T10:00:51.491Z,99777.95
2018-05-08T10:08:31.177Z,99761.61
2018-05-08T10:10:58.419Z,99765.84
2018-05-08T10:13:25.095Z,99761.26
2018-05-08T10:20:54.377Z,99758.50
2018-05-08T10:23:20.347Z,99756.25
2018-05-08T10:25:46.295Z,99753.81
2018-05-08T10:28:12.345Z,99746.22
2018-05-08T10:30:38.325Z,99740.30
2018-05-08T10:33:04.369Z,99739.02
2018-05-08T10:35:30.307Z,99745.08
2018-05-08T10:37:56.265Z,99731.83
2018-05-08T10:40:22.299Z,99722.12
2018-05-08T10:42:48.340Z,99727.50
2018-05-08T10:45:14.287Z,99721.34
2018-05-08T10:47:40.310Z,99732.73
2018-05-08T10:50:06.303Z,99713.52
2018-05-08T10:52:32.290Z,99722.17
2018-05-08T10:54:58.276Z,99705.16
2018-05-08T10:57:24.224Z,99714.56
2018-05-08T10:59:50.188Z,99715.41
2018-05-08T11:02:16.262Z,99706.61
2018-05-08T11:04:42.244Z,99706.56
2018-05-08T11:07:08.278Z,99704.31
2018-05-08T11:09:34.288Z,99697.70
2018-05-08T11:12:00.243Z,99701.23
2018-05-08T11:14:26.249Z,99697.83
2018-05-08T11:16:52.280Z,99712.72
2018-05-08T11:19:18.295Z,99695.02
2018-05-08T11:21:44.280Z,99687.87
2018-05-08T11:24:10.263Z,99682.14
2018-05-08T11:26:36.358Z,99678.97
2018-05-08T11:29:02.284Z,99679.52
2018-05-08T11:31:28.270Z,99669.80
2018-05-08T11:33:54.260Z,99657.61
2018-05-08T11:36:20.617Z,99669.07
2018-05-08T11:38:46.641Z,99658.14
2018-05-08T11:41:12.639Z,99657.66
2018-05-08T11:43:38.625Z,99657.81
2018-05-08T11:46:04.604Z,99658.02
2018-05-08T11:48:30.679Z,99644.30
2018-05-08T11:50:56.629Z,99650.30
2018-05-08T11:53:22.627Z,99646.80
2018-05-08T11:55:48.599Z,99637.39
2018-05-08T11:58:14.633Z,99635.92
2018-05-08T12:00:40.727Z,99632.93
2018-05-08T12:03:06.778Z,99628.32
2018-05-08T12:05:32.834Z,99633.73
2018-05-08T12:07:58.835Z,99629.49
2018-05-08T12:10:24.883Z,99629.89
2018-05-08T12:12:50.871Z,99632.15
2018-05-08T12:15:16.846Z,99619.81
2018-05-08T12:17:42.817Z,99616.99
2018-05-08T12:20:08.900Z,99613.41
2018-05-08T12:22:34.958Z,99610.05
2018-05-08T12:25:01.101Z,99590.66
2018-05-08T12:27:27.201Z,99598.83
2018-05-08T12:29:53.227Z,99601.38
2018-05-08T12:32:19.217Z,99596.94
2018-05-08T12:34:45.237Z,99597.30
2018-05-08T12:37:11.305Z,99590.49
2018-05-08T12:39:37.369Z,99588.43
2018-05-08T12:42:03.410Z,99576.66
2018-05-08T12:44:29.493Z,99577.78
2018-05-08T12:46:55.620Z,99582.77
2018-05-08T12:49:21.989Z,99578.17
2018-05-08T12:51:48.519Z,99575.78
2018-05-08T12:54:15.047Z,99578.37
2018-05-08T12:56:44.447Z,99571.52
2018-05-08T13:01:43.552Z,99577.72
2018-05-08T13:04:10.385Z,99563.44
2018-05-08T13:06:36.697Z,99560.84
2018-05-08T13:11:36.140Z,99552.48
2018-05-08T13:14:02.544Z,99554.25
2018-05-08T13:19:04.298Z,99535.73
2018-05-08T13:21:31.723Z,99543.34
2018-05-08T13:26:34.012Z,99536.19
2018-05-08T13:29:04.105Z,99545.83
2018-05-08T13:31:32.081Z,99537.13
2018-05-08T13:33:58.767Z,99534.03
2018-05-08T13:43:50.085Z,99533.97
2018-05-08T13:46:16.177Z,99525.53
2018-05-08T13:48:42.167Z,99518.48
2018-05-08T13:51:08.119Z,99522.61
2018-05-08T13:53:34.186Z,99521.09
2018-05-08T13:56:00.288Z,99508.84
2018-05-08T13:58:26.290Z,99518.47
2018-05-08T14:00:52.309Z,99509.39
2018-05-08T14:03:18.232Z,99506.78
2018-05-08T14:05:44.256Z,99506.64
2018-05-08T14:08:10.251Z,99503.95
2018-05-08T14:10:36.231Z,99503.30
2018-05-08T14:13:02.341Z,99505.22
2018-05-08T14:15:28.282Z,99493.13
2018-05-08T14:17:54.226Z,99479.12
2018-05-08T14:20:20.172Z,99482.80
2018-05-08T14:22:46.118Z,99485.53
2018-05-08T14:25:12.105Z,99486.81
2018-05-08T14:27:38.073Z,99479.78
2018-05-08T14:30:04.023Z,99505.76
2018-05-08T14:32:30.000Z,99470.64
2018-05-08T14:34:56.011Z,99473.10
2018-05-08T14:37:21.987Z,99479.41
2018-05-08T14:39:48.738Z,99468.97
2018-05-08T14:42:14.727Z,99470.44
2018-05-08T14:44:40.704Z,99463.38
2018-05-08T14:47:06.697Z,99463.66
2018-05-08T14:49:32.703Z,99476.45
2018-05-08T14:51:58.746Z,99460.91
2018-05-08T14:54:24.765Z,99459.75
2018-05-08T14:56:50.760Z,99455.06
2018-05-08T14:59:16.814Z,99455.84
2018-05-08T15:01:42.835Z,99455.32
2018-05-08T15:04:08.872Z,99448.54
2018-05-08T15:06:34.825Z,99452.87
2018-05-08T15:09:00.836Z,99446.36
2018-05-08T15:11:27.927Z,99442.92
2018-05-08T15:13:53.941Z,99443.27
2018-05-08T15:16:19.930Z,99442.33
2018-05-08T15:18:46.023Z,99440.42
2018-05-08T15:21:11.988Z,99442.38
2018-05-08T15:23:38.066Z,99433.69
2018-05-08T15:26:04.076Z,99430.83
2018-05-08T15:28:30.123Z,99432.63
2018-05-08T15:30:57.201Z,99430.00
2018-05-08T15:33:23.226Z,99430.02
2018-05-08T15:35:49.242Z,99418.45
2018-05-08T15:38:15.326Z,99415.13
2018-05-08T15:40:41.981Z,99415.81
2018-05-08T15:43:07.977Z,99408.56
2018-05-08T15:45:34.005Z,99407.94
2018-05-08T15:47:59.993Z,99400.50
2018-05-08T15:50:26.016Z,99394.50
2018-05-08T15:52:52.003Z,99396.45
2018-05-08T15:55:17.955Z,99390.61
2018-05-08T15:57:43.953Z,99391.83
2018-05-08T16:00:09.949Z,99393.11
2018-05-08T16:02:36.011Z,99398.36
2018-05-08T16:05:02.026Z,99389.71
2018-05-08T16:07:27.987Z,99403.68
2018-05-08T16:09:54.020Z,99387.48
2018-05-08T16:12:20.017Z,99394.39
2018-05-08T16:14:46.012Z,99395.44
2018-05-08T16:17:12.039Z,99384.30
2018-05-08T16:19:38.046Z,99380.54
2018-05-08T16:22:04.041Z,99385.25
2018-05-08T16:24:30.026Z,99382.58
2018-05-08T16:26:56.000Z,99378.28
2018-05-08T16:29:21.973Z,99380.19
2018-05-08T16:31:47.944Z,99372.66
2018-05-08T16:34:13.930Z,99377.75
2018-05-08T16:36:39.917Z,99379.53
2018-05-08T16:39:05.854Z,99374.02
2018-05-08T16:41:31.803Z,99391.16
2018-05-08T16:43:57.777Z,99365.33
2018-05-08T16:46:23.796Z,99369.37
2018-05-08T16:48:50.712Z,99372.95
2018-05-08T16:51:16.705Z,99371.80
2018-05-08T16:53:42.666Z,99371.83
2018-05-08T16:56:08.713Z,99366.61
2018-05-08T16:58:34.687Z,99372.31
2018-05-08T17:01:00.746Z,99373.47
2018-05-08T17:03:26.760Z,99372.31
2018-05-08T17:05:52.829Z,99367.73
2018-05-08T17:08:18.862Z,99369.59
2018-05-08T17:10:44.896Z,99370.66
2018-05-08T17:13:10.932Z,99366.77
2018-05-08T17:15:36.933Z,99371.69
2018-05-08T17:18:03.552Z,99361.43
2018-05-08T17:20:30.143Z,99366.67
2018-05-08T17:22:56.093Z,99369.75
2018-05-08T17:25:22.120Z,99368.89
2018-05-08T17:27:48.153Z,99368.44
2018-05-08T17:30:14.198Z,99367.23
2018-05-08T17:32:40.182Z,99361.82
2018-05-08T17:35:06.187Z,99369.24
2018-05-08T17:37:32.211Z,99376.07
2018-05-08T17:39:58.223Z,99373.95
2018-05-08T17:42:24.200Z,99373.58
2018-05-08T17:44:50.289Z,99378.47
2018-05-08T17:47:16.284Z,99373.91
2018-05-08T17:49:42.955Z,99373.27
2018-05-08T17:52:08.982Z,99380.25
2018-05-08T17:54:34.911Z,99378.33
2018-05-08T17:57:01.014Z,99383.09
2018-05-08T17:59:27.070Z,99385.59
2018-05-08T18:01:53.064Z,99381.67
2018-05-08T18:04:19.182Z,99379.61
2018-05-08T18:06:45.116Z,99384.31
2018-05-08T18:09:11.095Z,99382.04
2018-05-08T18:11:37.280Z,99383.89
2018-05-08T18:14:03.318Z,99381.73
2018-05-08T18:16:29.319Z,99383.37
2018-05-08T18:18:55.469Z,99383.45
2018-05-08T18:21:21.563Z,99387.08
2018-05-08T18:23:47.691Z,99384.35
2018-05-08T18:26:13.744Z,99380.75
2018-05-08T18:28:39.739Z,99381.50
2018-05-08T18:31:06.194Z,99383.63
2018-05-08T18:33:32.173Z,99385.03
2018-05-08T18:35:58.303Z,99391.67
2018-05-08T18:38:24.457Z,99390.05
2018-05-08T18:40:50.452Z,99391.13
2018-05-08T18:43:16.501Z,99387.80
2018-05-08T18:45:42.455Z,99385.36
2018-05-08T18:48:08.447Z,99390.11
2018-05-08T18:50:34.507Z,99393.89
2018-05-08T18:53:00.524Z,99394.50
2018-05-08T18:55:26.638Z,99394.23
2018-05-08T18:57:52.635Z,99397.70
2018-05-08T19:00:18.681Z,99393.01
2018-05-08T19:02:44.729Z,99391.71
2018-05-08T19:05:10.811Z,99390.09
2018-05-08T19:07:36.923Z,99391.50
2018-05-08T19:10:03.078Z,99388.56
2018-05-08T19:12:30.064Z,99389.05
2018-05-08T19:14:56.267Z,99392.38
2018-05-08T19:17:22.342Z,99384.75
2018-05-08T19:19:48.446Z,99387.98
2018-05-08T19:22:14.411Z,99389.58
2018-05-08T19:24:40.450Z,99388.28
2018-05-08T19:27:06.532Z,99389.17
2018-05-08T19:29:32.484Z,99387.53
2018-05-08T19:31:58.673Z,99386.73
2018-05-08T19:34:24.640Z,99386.02
2018-05-08T19:36:51.309Z,99382.66
2018-05-08T19:39:17.335Z,99384.36
2018-05-08T19:41:43.376Z,99378.28
2018-05-08T19:44:09.646Z,99375.27
2018-05-08T19:46:35.690Z,99369.36
2018-05-08T19:49:01.687Z,99375.59
2018-05-08T19:51:27.697Z,99373.88
2018-05-08T19:53:54.033Z,99378.68
2018-05-08T19:56:20.037Z,99376.43
2018-05-08T19:58:46.006Z,99382.59
2018-05-08T20:01:12.092Z,99370.03
2018-05-08T20:03:38.153Z,99375.03
2018-05-08T20:06:04.193Z,99370.13
2018-05-08T20:08:30.251Z,99372.80
2018-05-08T20:10:56.385Z,99376.91
2018-05-08T20:13:22.414Z,99375.99
2018-05-08T20:15:48.524Z,99375.37
2018-05-08T20:18:15.808Z,99382.80
2018-05-08T20:20:41.795Z,99378.50
2018-05-08T20:23:08.892Z,99380.95
2018-05-08T20:25:34.883Z,99378.97
2018-05-08T20:28:02.275Z,99380.30
2018-05-08T20:30:28.313Z,99374.82
2018-05-08T20:32:54.354Z,99376.30
2018-05-08T20:35:21.288Z,99374.52
2018-05-08T20:37:47.385Z,99374.52
2018-05-08T20:40:13.346Z,99374.41
2018-05-08T20:42:39.308Z,99373.44
2018-05-08T20:45:05.243Z,99364.97
2018-05-08T20:47:31.171Z,99356.83
2018-05-08T20:49:57.105Z,99361.45
2018-05-08T20:52:23.726Z,99369.07
2018-05-08T20:54:49.711Z,99360.52
2018-05-08T20:57:15.660Z,99370.45
2018-05-08T20:59:41.692Z,99365.98
2018-05-08T21:02:07.672Z,99372.17
2018-05-08T21:04:33.658Z,99370.25
2018-05-08T21:06:59.634Z,99369.09
2018-05-08T21:09:25.658Z,99367.81
2018-05-08T21:11:51.708Z,99365.91
2018-05-08T21:14:17.713Z,99363.45
2018-05-08T21:16:43.673Z,99363.09
2018-05-08T21:19:09.635Z,99358.08
2018-05-08T21:21:35.965Z,99366.82
2018-05-08T21:24:01.938Z,99354.52
2018-05-08T21:26:27.890Z,99358.42
2018-05-08T21:28:53.858Z,99355.22
2018-05-08T21:31:19.839Z,99356.83
2018-05-08T21:33:45.830Z,99360.40
2018-05-08T21:36:11.784Z,99359.11
2018-05-08T21:38:37.773Z,99355.66
2018-05-08T21:41:03.732Z,99362.14
2018-05-08T21:43:29.704Z,99356.02
2018-05-08T21:45:55.668Z,99354.85
2018-05-08T21:48:21.628Z,99355.16
2018-05-08T21:50:47.622Z,99362.83
2018-05-08T21:53:13.995Z,99359.16
2018-05-08T21:55:39.941Z,99368.55
2018-05-08T21:58:05.939Z,99351.26
2018-05-08T22:00:31.915Z,99369.65
2018-05-08T22:02:57.907Z,99366.64
2018-05-08T22:05:23.850Z,99371.42
2018-05-08T22:07:49.849Z,99369.84
2018-05-08T22:10:15.811Z,99372.62
2018-05-08T22:12:41.784Z,99370.58
2018-05-08T22:15:07.777Z,99369.68
2018-05-08T22:17:33.733Z,99368.52
2018-05-08T22:19:59.689Z,99371.72
2018-05-08T22:22:26.242Z,99364.79
2018-05-08T22:24:52.200Z,99366.24
2018-05-08T22:27:18.142Z,99372.38
2018-05-08T22:29:44.098Z,99368.68
2018-05-08T22:32:10.029Z,99371.93
2018-05-08T22:34:35.991Z,99363.16
2018-05-08T22:37:01.988Z,99361.22
2018-05-08T22:39:27.944Z,99362.86
2018-05-08T22:41:53.910Z,99362.49
2018-05-08T22:44:19.884Z,99361.25
2018-05-08T22:46:45.817Z,99361.30
2018-05-08T22:49:11.780Z,99364.55
2018-05-08T22:51:37.743Z,99363.68
2018-05-08T22:54:03.691Z,99361.44
2018-05-08T22:56:29.656Z,99363.37
2018-05-08T22:58:55.616Z,99360.34
2018-05-08T23:01:21.622Z,99361.09
2018-05-08T23:03:47.592Z,99353.06
2018-05-08T23:06:13.552Z,99359.55
2018-05-08T23:08:39.524Z,99360.28
2018-05-08T23:11:05.474Z,99356.34
2018-05-08T23:13:31.464Z,99359.39
2018-05-08T23:15:57.457Z,99360.37
2018-05-08T23:18:23.431Z,99353.47
2018-05-08T23:20:49.361Z,99347.72
2018-05-08T23:23:15.312Z,99352.11
2018-05-08T23:25:41.258Z,99347.44
2018-05-08T23:30:39.494Z,99343.94
2018-05-08T23:33:05.498Z,99344.93
2018-05-08T23:35:31.458Z,99342.84
2018-05-08T23:37:57.426Z,99344.08
2018-05-08T23:40:23.428Z,99338.50
2018-05-08T23:42:49.441Z,99337.33
2018-05-08T23:45:15.454Z,99342.33
2018-05-08T23:47:41.421Z,99334.16
2018-05-08T23:50:07.376Z,99331.56
2018-05-08T23:52:33.352Z,99333.53
2018-05-08T23:54:59.297Z,99332.95
2018-05-08T23:57:25.255Z,99323.19
2018-05-08T23:59:51.239Z,99323.59
